Time;durP1;ratioP1;P1;durP2;ratioP2;P2;SDS_P1;SDS_P2;PMS_P1;PMS_P2;Temp;Humidity;BMP_temperature;BMP_pressure;BME280_temperature;BME280_humidity;BME280_pressure;Samples;Min_cycle;Max_cycle;Signal;HPM_P1;HPM_P2
2022/09/08 00:01:32;;;;;;;;;;;20.20;70.60;;;;;;5116603;27;19946;-71
2022/09/08 00:04:01;;;;;;;;;;;20.20;70.70;;;;;;5124219;27;19919;-71
2022/09/08 00:06:32;;;;;;;;;;;20.10;71.00;;;;;;5123044;27;19927;-71
2022/09/08 00:09:00;;;;;;;;;;;20.20;70.80;;;;;;5131039;27;19919;-71
2022/09/08 00:11:29;;;;;;;;;;;20.30;70.50;;;;;;5126210;27;19931;-71
2022/09/08 00:13:57;;;;;;;;;;;20.30;70.50;;;;;;5124652;27;19926;-70
2022/09/08 00:16:24;;;;;;;;;;;20.20;70.50;;;;;;5119395;27;19920;-71
2022/09/08 00:18:51;;;;;;;;;;;20.20;70.80;;;;;;5128601;27;19919;-71
2022/09/08 00:21:18;;;;;;;;;;;20.20;70.90;;;;;;5126087;27;19923;-71
2022/09/08 00:23:44;;;;;;;;;;;20.20;70.80;;;;;;5129519;27;19923;-71
2022/09/08 00:26:13;;;;;;;;;;;20.20;70.90;;;;;;5128404;27;19934;-71
2022/09/08 00:28:39;;;;;;;;;;;20.20;70.90;;;;;;5131340;27;19920;-70
2022/09/08 00:31:06;;;;;;;;;;;20.10;71.10;;;;;;5126531;27;19926;-70
2022/09/08 00:33:33;;;;;;;;;;;20.10;71.10;;;;;;5125195;27;19927;-71
2022/09/08 00:36:03;;;;;;;;;;;20.10;71.20;;;;;;5130714;27;19959;-71
2022/09/08 00:38:31;;;;;;;;;;;20.10;71.20;;;;;;5124365;27;19963;-71
2022/09/08 00:40:58;;;;;;;;;;;20.10;71.20;;;;;;5128507;27;19976;-71
2022/09/08 00:43:34;;;;;;;;;;;20.10;71.20;;;;;;5125991;27;19924;-71
2022/09/08 00:46:07;;;;;;;;;;;20.10;71.20;;;;;;5131483;27;19923;-71
2022/09/08 00:48:38;;;;;;;;;;;20.10;71.20;;;;;;5130506;27;19927;-70
2022/09/08 00:51:05;;;;;;;;;;;20.10;71.30;;;;;;5126628;27;20319;-71
2022/09/08 00:53:33;;;;;;;;;;;20.10;71.50;;;;;;5127417;27;20010;-71
2022/09/08 00:56:05;;;;;;;;;;;20.10;71.60;;;;;;5130720;27;19920;-71
2022/09/08 00:58:31;;;;;;;;;;;20.10;71.60;;;;;;5127197;27;19948;-71
2022/09/08 01:01:00;;;;;;;;;;;20.10;71.80;;;;;;5126308;27;19942;-70
2022/09/08 01:03:27;;;;;;;;;;;20.10;71.70;;;;;;5125946;28;19919;-71
2022/09/08 01:05:57;;;;;;;;;;;20.10;71.50;;;;;;5115612;27;20332;-71
2022/09/08 01:14:05;;;;;;;;;;;20.00;72.20;;;;;;5101305;27;19927;-71
2022/09/08 01:16:40;;;;;;;;;;;19.90;72.50;;;;;;5121812;27;20360;-71
2022/09/08 01:19:11;;;;;;;;;;;19.90;72.50;;;;;;5128706;27;19972;-70
2022/09/08 01:21:42;;;;;;;;;;;19.90;72.80;;;;;;5117190;27;20455;-71
2022/09/08 01:24:24;;;;;;;;;;;19.80;73.00;;;;;;5122305;27;20009;-70
2022/09/08 01:27:11;;;;;;;;;;;19.80;73.40;;;;;;5114828;27;20270;-70
2022/09/08 01:29:39;;;;;;;;;;;19.80;73.40;;;;;;5127656;27;19928;-69
2022/09/08 01:32:09;;;;;;;;;;;19.80;73.70;;;;;;5128115;27;19927;-71
2022/09/08 01:34:39;;;;;;;;;;;19.80;74.00;;;;;;5129596;27;19976;-70
2022/09/08 01:37:06;;;;;;;;;;;19.80;74.20;;;;;;5133569;27;19942;-70
2022/09/08 01:39:33;;;;;;;;;;;19.70;74.30;;;;;;5131031;27;19920;-71
2022/09/08 01:42:00;;;;;;;;;;;19.70;74.50;;;;;;5129370;27;19919;-71
2022/09/08 01:44:32;;;;;;;;;;;19.70;74.60;;;;;;5122915;27;19920;-72
2022/09/08 01:46:59;;;;;;;;;;;19.60;74.80;;;;;;5127417;27;19919;-69
2022/09/08 01:49:26;;;;;;;;;;;19.60;74.70;;;;;;5129507;27;20054;-71
2022/09/08 01:51:53;;;;;;;;;;;19.70;74.60;;;;;;5130496;27;20010;-71
2022/09/08 01:54:20;;;;;;;;;;;19.70;74.30;;;;;;5129608;27;19919;-71
2022/09/08 01:56:46;;;;;;;;;;;19.80;74.10;;;;;;5131863;27;19938;-71
2022/09/08 01:59:13;;;;;;;;;;;19.80;74.10;;;;;;5126645;27;20046;-71
2022/09/08 02:01:41;;;;;;;;;;;19.80;73.90;;;;;;5116731;27;20396;-70
2022/09/08 02:04:08;;;;;;;;;;;19.80;74.00;;;;;;5129774;27;19927;-70
2022/09/08 02:06:34;;;;;;;;;;;19.80;73.80;;;;;;5124613;27;19924;-70
2022/09/08 02:09:01;;;;;;;;;;;19.80;73.70;;;;;;5124134;27;19970;-71
2022/09/08 02:11:29;;;;;;;;;;;19.80;73.50;;;;;;5124697;27;19919;-72
2022/09/08 02:13:56;;;;;;;;;;;19.80;73.40;;;;;;5131552;27;19920;-71
2022/09/08 02:16:23;;;;;;;;;;;19.90;73.30;;;;;;5129033;27;19927;-71
2022/09/08 02:18:53;;;;;;;;;;;19.90;73.10;;;;;;5123264;27;19923;-70
2022/09/08 02:21:20;;;;;;;;;;;19.80;73.20;;;;;;5124489;27;20018;-71
2022/09/08 02:23:48;;;;;;;;;;;19.80;73.10;;;;;;5123371;27;20927;-71
2022/09/08 02:26:17;;;;;;;;;;;19.80;73.30;;;;;;5127220;27;19934;-70
2022/09/08 02:28:44;;;;;;;;;;;19.80;73.50;;;;;;5125632;27;20002;-73
2022/09/08 02:31:11;;;;;;;;;;;19.90;73.70;;;;;;5123709;27;19923;-70
2022/09/08 02:33:39;;;;;;;;;;;19.90;74.10;;;;;;5127663;27;20360;-72
2022/09/08 02:36:08;;;;;;;;;;;19.90;74.60;;;;;;5123029;27;19958;-71
2022/09/08 02:38:35;;;;;;;;;;;19.80;75.20;;;;;;5119242;27;19930;-70
2022/09/08 02:41:04;;;;;;;;;;;19.80;75.60;;;;;;5125567;27;20378;-71
2022/09/08 02:43:30;;;;;;;;;;;19.80;75.90;;;;;;5132559;27;19919;-71
2022/09/08 02:46:02;;;;;;;;;;;19.80;76.10;;;;;;5125004;27;20022;-72
2022/09/08 02:48:30;;;;;;;;;;;19.70;76.50;;;;;;5116010;27;19935;-71
2022/09/08 02:50:58;;;;;;;;;;;19.70;76.70;;;;;;5124207;27;19950;-71
2022/09/08 02:53:26;;;;;;;;;;;19.60;76.90;;;;;;5130173;27;19927;-72
2022/09/08 02:55:53;;;;;;;;;;;19.60;77.30;;;;;;5129413;27;19934;-71
2022/09/08 02:58:20;;;;;;;;;;;19.60;77.50;;;;;;5131671;27;19934;-71
2022/09/08 03:00:46;;;;;;;;;;;19.60;77.70;;;;;;5124385;27;19920;-72
2022/09/08 03:03:13;;;;;;;;;;;19.50;78.20;;;;;;5124082;27;19919;-71
2022/09/08 03:05:41;;;;;;;;;;;19.50;78.30;;;;;;5121643;27;19920;-71
2022/09/08 03:08:08;;;;;;;;;;;19.50;78.70;;;;;;5123089;27;19926;-70
2022/09/08 03:10:37;;;;;;;;;;;19.40;79.10;;;;;;5122800;27;19978;-70
2022/09/08 03:13:04;;;;;;;;;;;19.50;78.90;;;;;;5128051;27;20304;-70
2022/09/08 03:15:31;;;;;;;;;;;19.50;78.60;;;;;;5118923;27;19964;-70
2022/09/08 03:17:59;;;;;;;;;;;19.50;78.80;;;;;;5125310;27;19938;-71
2022/09/08 03:20:26;;;;;;;;;;;19.50;78.90;;;;;;5123378;27;19938;-72
2022/09/08 03:22:53;;;;;;;;;;;19.40;79.10;;;;;;5131696;27;19996;-70
2022/09/08 03:25:20;;;;;;;;;;;19.40;79.20;;;;;;5130487;27;19919;-71
2022/09/08 03:27:48;;;;;;;;;;;19.40;79.40;;;;;;5126417;27;19925;-70
2022/09/08 03:30:16;;;;;;;;;;;19.50;79.30;;;;;;5121490;27;19931;-71
2022/09/08 03:32:43;;;;;;;;;;;19.40;79.40;;;;;;5123160;27;19920;-73
2022/09/08 03:35:12;;;;;;;;;;;19.40;79.60;;;;;;5131964;27;19920;-70
2022/09/08 03:37:39;;;;;;;;;;;19.40;79.70;;;;;;5129431;27;19927;-70
2022/09/08 03:40:06;;;;;;;;;;;19.40;79.90;;;;;;5125053;27;20026;-71
2022/09/08 03:42:34;;;;;;;;;;;19.30;80.00;;;;;;5129466;27;19927;-71
2022/09/08 03:45:02;;;;;;;;;;;19.40;79.80;;;;;;5132208;27;19919;-70
2022/09/08 03:47:29;;;;;;;;;;;19.40;79.80;;;;;;5129437;27;19927;-69
2022/09/08 03:49:56;;;;;;;;;;;19.30;80.00;;;;;;5128591;27;19928;-70
2022/09/08 03:52:23;;;;;;;;;;;19.30;80.30;;;;;;5128509;27;19924;-70
2022/09/08 03:54:50;;;;;;;;;;;19.30;80.60;;;;;;5124459;27;19927;-71
2022/09/08 03:57:19;;;;;;;;;;;19.30;80.60;;;;;;5129650;27;19946;-71
2022/09/08 03:59:45;;;;;;;;;;;19.20;80.80;;;;;;5131433;27;19927;-71
2022/09/08 04:02:14;;;;;;;;;;;19.20;80.80;;;;;;5125496;27;19923;-69
2022/09/08 04:04:41;;;;;;;;;;;19.30;80.60;;;;;;5127337;27;20262;-71
2022/09/08 04:07:09;;;;;;;;;;;19.30;80.60;;;;;;5128232;27;20150;-69
2022/09/08 04:09:36;;;;;;;;;;;19.30;80.70;;;;;;5125823;27;19962;-70
2022/09/08 04:12:03;;;;;;;;;;;19.20;81.00;;;;;;5130516;27;19950;-70
2022/09/08 04:14:30;;;;;;;;;;;19.20;81.10;;;;;;5126955;27;19919;-70
2022/09/08 04:16:57;;;;;;;;;;;19.20;81.40;;;;;;5131978;27;19919;-70
2022/09/08 04:19:26;;;;;;;;;;;19.20;81.40;;;;;;5131851;27;20364;-69
2022/09/08 04:21:52;;;;;;;;;;;19.20;81.30;;;;;;5130304;27;20005;-72
2022/09/08 04:24:20;;;;;;;;;;;19.20;81.30;;;;;;5124637;27;19950;-70
2022/09/08 04:26:47;;;;;;;;;;;19.10;81.60;;;;;;5131217;27;20384;-70
2022/09/08 04:29:14;;;;;;;;;;;19.20;81.40;;;;;;5126379;27;19964;-70
2022/09/08 04:31:41;;;;;;;;;;;19.30;81.20;;;;;;5132323;27;19923;-70
2022/09/08 04:34:08;;;;;;;;;;;19.30;80.90;;;;;;5125117;27;20420;-71
2022/09/08 04:36:36;;;;;;;;;;;19.20;81.20;;;;;;5135326;27;19927;-69
2022/09/08 04:39:04;;;;;;;;;;;19.20;81.30;;;;;;5126584;27;19919;-70
2022/09/08 04:41:31;;;;;;;;;;;19.20;81.40;;;;;;5131164;27;19926;-70
2022/09/08 04:44:00;;;;;;;;;;;19.10;81.40;;;;;;5130501;27;19919;-71
2022/09/08 04:46:27;;;;;;;;;;;19.20;81.40;;;;;;5126533;27;20011;-69
2022/09/08 04:48:54;;;;;;;;;;;19.20;81.30;;;;;;5128889;27;19997;-70
2022/09/08 04:51:21;;;;;;;;;;;19.30;81.20;;;;;;5127810;27;19923;-72
2022/09/08 04:53:52;;;;;;;;;;;19.20;81.20;;;;;;5131683;27;19919;-69
2022/09/08 04:56:19;;;;;;;;;;;19.30;81.10;;;;;;5131777;27;19943;-71
2022/09/08 04:58:46;;;;;;;;;;;19.30;81.20;;;;;;5129567;27;19923;-71
2022/09/08 05:01:14;;;;;;;;;;;19.10;81.70;;;;;;5132712;27;19920;-71
2022/09/08 05:03:42;;;;;;;;;;;19.20;81.60;;;;;;5134204;27;20356;-69
2022/09/08 05:06:10;;;;;;;;;;;19.10;81.90;;;;;;5130945;27;19942;-70
2022/09/08 05:08:37;;;;;;;;;;;19.10;82.20;;;;;;5130709;27;19934;-70
2022/09/08 05:11:05;;;;;;;;;;;19.10;82.20;;;;;;5133586;27;19921;-70
2022/09/08 05:13:33;;;;;;;;;;;19.10;82.10;;;;;;5124615;27;20500;-71
2022/09/08 05:16:03;;;;;;;;;;;19.00;82.30;;;;;;5132660;27;19920;-71
2022/09/08 05:18:30;;;;;;;;;;;19.00;82.30;;;;;;5127884;27;19926;-70
2022/09/08 05:20:57;;;;;;;;;;;19.10;82.30;;;;;;5132502;27;20297;-70
2022/09/08 05:23:24;;;;;;;;;;;19.10;82.20;;;;;;5120582;27;19927;-71
2022/09/08 05:25:57;;;;;;;;;;;19.10;82.30;;;;;;5131868;27;19919;-71
2022/09/08 05:28:26;;;;;;;;;;;19.10;82.30;;;;;;5133954;27;19976;-70
2022/09/08 05:30:53;;;;;;;;;;;19.10;82.30;;;;;;5126909;27;19998;-69
2022/09/08 05:33:20;;;;;;;;;;;19.10;82.30;;;;;;5134377;27;19926;-70
2022/09/08 05:35:47;;;;;;;;;;;19.10;82.20;;;;;;5128267;27;19919;-69
2022/09/08 05:38:14;;;;;;;;;;;19.10;82.00;;;;;;5126574;27;19919;-69
2022/09/08 05:40:41;;;;;;;;;;;19.10;82.00;;;;;;5130574;27;20249;-69
2022/09/08 05:43:08;;;;;;;;;;;19.10;82.00;;;;;;5133989;27;20287;-70
2022/09/08 05:45:36;;;;;;;;;;;19.10;82.10;;;;;;5130144;27;19962;-71
2022/09/08 05:48:03;;;;;;;;;;;19.10;82.20;;;;;;5132343;27;19969;-69
2022/09/08 05:50:34;;;;;;;;;;;19.10;82.30;;;;;;5128581;27;19980;-71
2022/09/08 05:53:01;;;;;;;;;;;19.10;82.40;;;;;;5129484;27;19954;-70
2022/09/08 05:55:28;;;;;;;;;;;19.10;82.40;;;;;;5132810;27;19926;-69
2022/09/08 05:57:54;;;;;;;;;;;19.10;82.40;;;;;;5132267;27;19988;-69
2022/09/08 06:00:21;;;;;;;;;;;19.10;82.40;;;;;;5120078;27;19942;-70
2022/09/08 06:02:50;;;;;;;;;;;19.10;82.50;;;;;;5129350;27;20391;-70
2022/09/08 06:05:17;;;;;;;;;;;19.10;82.40;;;;;;5125500;27;19928;-69
2022/09/08 06:07:44;;;;;;;;;;;19.10;82.50;;;;;;5128454;27;19919;-70
2022/09/08 06:10:11;;;;;;;;;;;19.10;82.40;;;;;;5125888;27;20596;-69
2022/09/08 06:12:40;;;;;;;;;;;19.10;82.50;;;;;;5120193;27;20025;-70
2022/09/08 06:15:08;;;;;;;;;;;19.10;82.60;;;;;;5131600;27;19966;-71
2022/09/08 06:17:35;;;;;;;;;;;19.10;82.50;;;;;;5127170;27;20351;-69
2022/09/08 06:20:04;;;;;;;;;;;19.10;82.50;;;;;;5132541;27;19926;-69
2022/09/08 06:22:32;;;;;;;;;;;19.20;82.50;;;;;;5131760;27;19919;-69
2022/09/08 06:24:59;;;;;;;;;;;19.20;82.60;;;;;;5128488;27;19923;-70
2022/09/08 06:27:32;;;;;;;;;;;19.20;82.50;;;;;;5128411;27;20434;-71
2022/09/08 06:30:02;;;;;;;;;;;19.20;82.50;;;;;;5123190;27;20337;-69
2022/09/08 06:32:31;;;;;;;;;;;19.10;82.70;;;;;;5133239;27;19929;-70
2022/09/08 06:35:01;;;;;;;;;;;19.20;82.60;;;;;;5129811;27;20373;-69
2022/09/08 06:37:31;;;;;;;;;;;19.20;82.50;;;;;;5131676;27;19923;-69
2022/09/08 06:40:01;;;;;;;;;;;19.10;82.70;;;;;;5129885;27;21198;-70
2022/09/08 06:42:32;;;;;;;;;;;19.10;82.90;;;;;;5132456;27;20384;-70
2022/09/08 06:45:00;;;;;;;;;;;19.00;83.10;;;;;;5129162;27;19943;-70
2022/09/08 06:47:29;;;;;;;;;;;19.00;83.20;;;;;;5132027;27;19923;-71
2022/09/08 06:49:56;;;;;;;;;;;19.00;83.10;;;;;;5131085;27;20624;-71
2022/09/08 06:52:26;;;;;;;;;;;19.00;83.30;;;;;;5132660;27;19919;-71
2022/09/08 06:54:56;;;;;;;;;;;19.00;83.30;;;;;;5131046;27;19927;-70
2022/09/08 06:57:32;;;;;;;;;;;19.00;83.20;;;;;;5129667;27;19919;-70
2022/09/08 07:00:02;;;;;;;;;;;19.00;83.20;;;;;;5129065;27;19929;-71
2022/09/08 07:02:45;;;;;;;;;;;18.90;83.20;;;;;;5131110;27;19919;-69
2022/09/08 07:05:17;;;;;;;;;;;19.00;83.00;;;;;;5101792;27;19926;-71
2022/09/08 07:07:47;;;;;;;;;;;19.00;83.00;;;;;;5129356;27;19944;-72
2022/09/08 07:10:19;;;;;;;;;;;19.00;82.90;;;;;;5128078;27;19925;-71
2022/09/08 07:12:52;;;;;;;;;;;19.00;82.80;;;;;;5127296;27;19930;-69
2022/09/08 07:15:40;;;;;;;;;;;19.00;82.80;;;;;;5132047;27;19926;-70
2022/09/08 07:18:13;;;;;;;;;;;19.00;82.50;;;;;;5132307;27;19929;-70
2022/09/08 07:20:40;;;;;;;;;;;18.90;82.80;;;;;;5128295;27;20428;-70
2022/09/08 07:23:12;;;;;;;;;;;19.00;82.60;;;;;;5130791;27;20222;-71
2022/09/08 07:25:45;;;;;;;;;;;19.00;82.70;;;;;;5131884;27;19919;-71
2022/09/08 07:28:15;;;;;;;;;;;19.00;82.50;;;;;;5126599;27;19919;-71
2022/09/08 07:30:42;;;;;;;;;;;19.10;82.20;;;;;;5129884;27;19926;-68
2022/09/08 07:33:14;;;;;;;;;;;19.00;82.40;;;;;;5127684;27;20468;-72
2022/09/08 07:35:59;;;;;;;;;;;19.00;82.50;;;;;;5131853;27;19923;-70
2022/09/08 07:38:29;;;;;;;;;;;18.90;82.70;;;;;;5114937;27;19965;-70
2022/09/08 07:40:57;;;;;;;;;;;19.00;82.50;;;;;;5119296;27;19927;-70
2022/09/08 07:43:26;;;;;;;;;;;18.90;82.80;;;;;;5129421;27;20694;-69
2022/09/08 07:45:59;;;;;;;;;;;18.90;82.90;;;;;;5127691;27;20433;-69
2022/09/08 07:48:29;;;;;;;;;;;18.90;82.90;;;;;;5129319;27;19919;-72
2022/09/08 07:50:59;;;;;;;;;;;19.00;82.80;;;;;;5124083;27;20383;-69
2022/09/08 07:53:31;;;;;;;;;;;19.00;83.00;;;;;;5131642;27;19919;-70
2022/09/08 07:56:04;;;;;;;;;;;19.00;82.90;;;;;;5124861;27;19923;-71
2022/09/08 07:58:36;;;;;;;;;;;19.00;82.70;;;;;;5129854;27;19920;-70
2022/09/08 08:01:09;;;;;;;;;;;19.00;82.90;;;;;;5127435;27;19919;-70
2022/09/08 08:03:41;;;;;;;;;;;18.90;83.00;;;;;;5129067;27;20360;-70
2022/09/08 08:06:11;;;;;;;;;;;18.90;83.00;;;;;;5124053;27;20374;-69
2022/09/08 08:08:43;;;;;;;;;;;19.00;83.00;;;;;;5123569;27;20026;-69
2022/09/08 08:11:16;;;;;;;;;;;19.00;83.00;;;;;;5119009;27;19923;-70
2022/09/08 08:13:52;;;;;;;;;;;19.10;83.10;;;;;;5122011;27;19927;-69
2022/09/08 08:16:21;;;;;;;;;;;19.00;83.20;;;;;;5120000;27;20065;-71
2022/09/08 08:18:53;;;;;;;;;;;19.00;83.30;;;;;;5129021;27;20521;-72
2022/09/08 08:21:23;;;;;;;;;;;19.00;83.40;;;;;;5123181;27;19964;-70
2022/09/08 08:23:58;;;;;;;;;;;19.00;83.20;;;;;;5124791;27;19930;-72
2022/09/08 08:26:30;;;;;;;;;;;19.00;83.30;;;;;;5124363;27;19927;-70
2022/09/08 08:29:05;;;;;;;;;;;18.90;83.60;;;;;;5126858;27;20415;-69
2022/09/08 08:31:36;;;;;;;;;;;18.90;83.60;;;;;;5119205;27;20308;-70
2022/09/08 08:34:07;;;;;;;;;;;18.90;83.60;;;;;;5124435;27;20775;-71
2022/09/08 08:36:37;;;;;;;;;;;18.90;83.50;;;;;;5124930;27;20019;-69
2022/09/08 08:39:08;;;;;;;;;;;19.00;83.10;;;;;;5124642;27;20304;-70
2022/09/08 08:41:41;;;;;;;;;;;18.90;83.50;;;;;;5127012;27;19919;-69
2022/09/08 08:44:18;;;;;;;;;;;19.00;83.20;;;;;;5120731;27;19919;-71
2022/09/08 08:46:51;;;;;;;;;;;19.00;83.20;;;;;;5131020;27;19926;-70
2022/09/08 08:49:28;;;;;;;;;;;19.00;83.50;;;;;;5123081;27;19919;-71
2022/09/08 08:51:58;;;;;;;;;;;19.00;83.10;;;;;;5123851;27;19972;-69
2022/09/08 08:54:40;;;;;;;;;;;19.10;83.10;;;;;;5127779;27;19927;-70
2022/09/08 08:57:17;;;;;;;;;;;19.20;82.90;;;;;;5125759;27;19967;-70
2022/09/08 08:59:58;;;;;;;;;;;19.20;82.70;;;;;;5125090;27;19919;-70
2022/09/08 09:02:36;;;;;;;;;;;19.20;82.90;;;;;;5120269;27;19923;-71
2022/09/08 09:05:14;;;;;;;;;;;19.20;82.60;;;;;;5124368;27;19920;-70
2022/09/08 09:07:49;;;;;;;;;;;19.20;82.90;;;;;;5122832;27;19920;-71
2022/09/08 09:10:22;;;;;;;;;;;19.20;82.80;;;;;;5119406;27;19931;-71
2022/09/08 09:12:57;;;;;;;;;;;19.20;82.80;;;;;;5121166;27;20350;-71
2022/09/08 09:15:30;;;;;;;;;;;19.20;82.40;;;;;;5123526;27;19935;-70
2022/09/08 09:18:13;;;;;;;;;;;19.10;82.60;;;;;;5123716;27;20013;-70
2022/09/08 09:20:45;;;;;;;;;;;19.10;82.80;;;;;;5117886;28;19942;-70
2022/09/08 09:23:14;;;;;;;;;;;19.10;82.80;;;;;;5118452;27;19923;-71
2022/09/08 09:25:50;;;;;;;;;;;19.10;83.10;;;;;;5122645;27;19920;-70
2022/09/08 09:28:23;;;;;;;;;;;19.10;83.20;;;;;;5122025;27;19919;-69
2022/09/08 09:30:55;;;;;;;;;;;19.10;83.10;;;;;;5125572;27;19969;-69
2022/09/08 09:33:40;;;;;;;;;;;19.10;83.20;;;;;;5119842;27;20380;-71
2022/09/08 09:36:18;;;;;;;;;;;19.20;83.40;;;;;;5125345;27;19947;-69
2022/09/08 09:39:14;;;;;;;;;;;19.20;82.80;;;;;;5125323;27;20322;-70
2022/09/08 09:41:52;;;;;;;;;;;19.20;82.70;;;;;;5128074;27;20337;-71
2022/09/08 09:44:27;;;;;;;;;;;19.20;82.80;;;;;;5128213;27;19995;-69
2022/09/08 09:47:08;;;;;;;;;;;19.40;82.10;;;;;;5130158;27;20006;-69
2022/09/08 09:49:53;;;;;;;;;;;19.70;81.80;;;;;;5124574;27;19924;-70
2022/09/08 09:52:24;;;;;;;;;;;19.90;81.70;;;;;;5127940;27;19919;-70
2022/09/08 09:55:04;;;;;;;;;;;20.00;81.10;;;;;;5127969;27;19919;-70
2022/09/08 09:57:44;;;;;;;;;;;20.10;81.00;;;;;;5127351;27;19945;-70
2022/09/08 10:00:29;;;;;;;;;;;20.30;81.00;;;;;;5118619;27;19924;-71
2022/09/08 10:03:14;;;;;;;;;;;20.20;81.00;;;;;;5125511;27;19966;-71
2022/09/08 10:05:54;;;;;;;;;;;20.10;80.90;;;;;;5128033;27;19919;-71
2022/09/08 10:08:40;;;;;;;;;;;20.20;80.70;;;;;;5121833;27;19923;-71
2022/09/08 10:11:15;;;;;;;;;;;20.40;80.50;;;;;;5129320;27;20226;-70
2022/09/08 10:13:59;;;;;;;;;;;20.50;80.00;;;;;;5128537;27;19927;-70
2022/09/08 10:16:44;;;;;;;;;;;20.40;79.50;;;;;;5123477;27;19926;-70
2022/09/08 10:19:28;;;;;;;;;;;20.30;79.80;;;;;;5109549;27;19958;-71
2022/09/08 10:22:23;;;;;;;;;;;20.20;80.10;;;;;;5109493;27;19924;-69
2022/09/08 10:24:59;;;;;;;;;;;20.10;79.50;;;;;;5125317;27;19926;-69
2022/09/08 10:27:41;;;;;;;;;;;20.10;79.70;;;;;;5123052;27;20346;-70
2022/09/08 10:30:29;;;;;;;;;;;20.10;79.60;;;;;;5122689;27;19919;-70
2022/09/08 10:33:13;;;;;;;;;;;20.20;79.30;;;;;;5092343;27;19977;-70
2022/09/08 10:35:43;;;;;;;;;;;20.30;79.00;;;;;;5129603;27;20361;-70
2022/09/08 10:38:28;;;;;;;;;;;20.30;78.90;;;;;;5120237;27;19919;-70
2022/09/08 10:41:06;;;;;;;;;;;20.20;78.70;;;;;;5126071;27;19919;-72
2022/09/08 10:43:45;;;;;;;;;;;20.20;79.00;;;;;;5121127;27;20006;-71
2022/09/08 10:46:23;;;;;;;;;;;20.20;79.40;;;;;;5127796;27;20080;-71
2022/09/08 10:48:59;;;;;;;;;;;20.20;78.80;;;;;;5128024;27;20347;-71
2022/09/08 10:51:52;;;;;;;;;;;20.20;79.20;;;;;;5128491;27;20013;-71
2022/09/08 10:54:35;;;;;;;;;;;20.20;78.60;;;;;;5132199;27;20268;-71
2022/09/08 10:57:18;;;;;;;;;;;20.20;78.50;;;;;;5118235;27;19920;-72
2022/09/08 10:59:55;;;;;;;;;;;20.20;78.30;;;;;;5127813;27;19919;-71
2022/09/08 11:02:33;;;;;;;;;;;20.20;78.50;;;;;;5122114;27;19959;-71
2022/09/08 11:05:27;;;;;;;;;;;20.10;78.50;;;;;;5124085;27;19923;-71
2022/09/08 11:08:13;;;;;;;;;;;20.10;78.70;;;;;;5123633;27;19919;-71
2022/09/08 11:10:55;;;;;;;;;;;20.00;78.90;;;;;;5125674;27;19927;-71
2022/09/08 11:13:31;;;;;;;;;;;20.00;78.80;;;;;;5121308;27;19928;-69
2022/09/08 11:16:13;;;;;;;;;;;20.00;78.70;;;;;;5127303;27;19919;-70
2022/09/08 11:18:52;;;;;;;;;;;20.00;78.40;;;;;;5129932;27;19976;-70
2022/09/08 11:21:24;;;;;;;;;;;20.10;78.50;;;;;;5122506;27;19923;-70
2022/09/08 11:23:54;;;;;;;;;;;20.10;78.40;;;;;;5120469;27;19951;-70
2022/09/08 11:26:29;;;;;;;;;;;20.20;78.30;;;;;;5123059;27;19935;-71
2022/09/08 11:29:02;;;;;;;;;;;20.30;78.10;;;;;;5122752;27;20369;-70
2022/09/08 11:31:34;;;;;;;;;;;20.30;78.70;;;;;;5128009;27;19923;-73
2022/09/08 11:34:13;;;;;;;;;;;20.40;78.60;;;;;;5122383;27;21923;-70
2022/09/08 11:36:49;;;;;;;;;;;20.40;78.00;;;;;;5129895;27;19928;-71
2022/09/08 11:39:22;;;;;;;;;;;20.30;78.60;;;;;;5130147;27;19919;-70
2022/09/08 11:41:55;;;;;;;;;;;20.40;78.00;;;;;;5122829;27;19930;-71
2022/09/08 11:44:40;;;;;;;;;;;20.40;77.20;;;;;;5122822;27;19923;-71
2022/09/08 11:47:27;;;;;;;;;;;20.40;76.10;;;;;;5121636;27;19919;-71
2022/09/08 11:50:06;;;;;;;;;;;20.60;76.30;;;;;;5123174;27;19923;-71
2022/09/08 11:52:51;;;;;;;;;;;20.70;76.70;;;;;;5127345;27;19919;-72
2022/09/08 11:55:24;;;;;;;;;;;20.70;75.20;;;;;;5130854;27;20002;-71
2022/09/08 11:57:59;;;;;;;;;;;20.70;74.80;;;;;;5127054;27;19930;-71
2022/09/08 12:00:42;;;;;;;;;;;20.90;74.90;;;;;;5124932;27;19919;-71
2022/09/08 12:03:27;;;;;;;;;;;21.10;74.50;;;;;;5121228;27;19923;-71
2022/09/08 12:06:15;;;;;;;;;;;21.20;74.00;;;;;;5132435;27;19919;-70
2022/09/08 12:08:52;;;;;;;;;;;21.30;72.90;;;;;;5126401;27;19919;-71
2022/09/08 12:11:27;;;;;;;;;;;21.30;71.50;;;;;;5126104;27;19946;-71
2022/09/08 12:13:57;;;;;;;;;;;21.40;70.50;;;;;;5129754;27;20013;-71
2022/09/08 12:16:40;;;;;;;;;;;21.60;69.90;;;;;;5121281;27;19923;-71
2022/09/08 12:19:13;;;;;;;;;;;21.60;68.80;;;;;;5123880;27;20061;-71
2022/09/08 12:21:50;;;;;;;;;;;21.70;68.30;;;;;;5120170;27;21265;-71
2022/09/08 12:24:24;;;;;;;;;;;21.60;67.80;;;;;;5121290;27;19947;-71
2022/09/08 12:26:55;;;;;;;;;;;21.70;67.50;;;;;;5116701;27;19955;-70
2022/09/08 12:29:32;;;;;;;;;;;21.70;67.60;;;;;;5120600;27;19923;-70
2022/09/08 12:32:13;;;;;;;;;;;21.80;66.90;;;;;;5123006;27;19943;-71
2022/09/08 12:34:50;;;;;;;;;;;21.80;66.60;;;;;;5119023;27;19926;-69
2022/09/08 12:37:23;;;;;;;;;;;21.90;66.40;;;;;;5124664;27;19919;-71
2022/09/08 12:40:08;;;;;;;;;;;22.00;65.20;;;;;;5125291;27;19964;-69
2022/09/08 12:42:48;;;;;;;;;;;21.90;64.40;;;;;;5120741;27;20395;-70
2022/09/08 12:45:27;;;;;;;;;;;21.90;63.80;;;;;;5118391;27;19919;-70
2022/09/08 12:48:01;;;;;;;;;;;22.00;63.40;;;;;;5121220;27;20373;-71
2022/09/08 12:50:38;;;;;;;;;;;22.00;63.50;;;;;;5128087;27;20389;-70
2022/09/08 12:53:19;;;;;;;;;;;22.00;63.50;;;;;;5122794;27;19919;-70
2022/09/08 12:55:49;;;;;;;;;;;22.00;64.20;;;;;;5126417;27;19919;-71
2022/09/08 12:58:21;;;;;;;;;;;22.10;63.90;;;;;;5124989;27;19926;-70
2022/09/08 13:00:54;;;;;;;;;;;22.10;64.00;;;;;;5121187;27;20368;-69
2022/09/08 13:03:34;;;;;;;;;;;22.10;63.20;;;;;;5128084;27;19920;-71
2022/09/08 13:06:23;;;;;;;;;;;22.10;63.00;;;;;;5122735;27;19991;-69
2022/09/08 13:09:00;;;;;;;;;;;22.10;61.80;;;;;;5118511;27;20403;-72
2022/09/08 13:11:41;;;;;;;;;;;22.00;61.20;;;;;;5129101;27;19926;-71
2022/09/08 13:14:09;;;;;;;;;;;22.00;61.80;;;;;;5119057;27;20412;-70
2022/09/08 13:16:40;;;;;;;;;;;22.00;60.70;;;;;;5133399;27;19987;-70
2022/09/08 13:19:18;;;;;;;;;;;22.10;60.80;;;;;;5131692;27;19920;-70
2022/09/08 13:21:59;;;;;;;;;;;22.20;60.00;;;;;;5129428;27;19919;-70
2022/09/08 13:24:31;;;;;;;;;;;22.20;59.50;;;;;;5113603;27;19919;-70
2022/09/08 13:27:02;;;;;;;;;;;22.20;59.40;;;;;;5130847;27;20379;-71
2022/09/08 13:29:38;;;;;;;;;;;22.10;59.20;;;;;;5131861;27;19955;-69
2022/09/08 13:32:12;;;;;;;;;;;22.10;59.10;;;;;;5127600;27;19924;-72
2022/09/08 13:34:47;;;;;;;;;;;22.00;59.50;;;;;;5125344;27;20048;-70
2022/09/08 13:37:22;;;;;;;;;;;22.10;59.40;;;;;;5134674;27;19923;-71
2022/09/08 13:39:56;;;;;;;;;;;22.10;59.10;;;;;;5133685;27;19923;-70
2022/09/08 13:42:27;;;;;;;;;;;22.10;59.20;;;;;;5127976;27;19926;-71
2022/09/08 13:45:02;;;;;;;;;;;22.10;59.20;;;;;;5129827;27;19927;-70
2022/09/08 13:47:45;;;;;;;;;;;22.10;59.10;;;;;;5133790;27;19926;-71
2022/09/08 13:50:20;;;;;;;;;;;22.10;59.50;;;;;;5129600;27;19926;-71
2022/09/08 13:52:59;;;;;;;;;;;22.10;58.90;;;;;;5123600;27;19927;-71
2022/09/08 13:55:32;;;;;;;;;;;22.00;58.70;;;;;;5131702;27;20018;-71
2022/09/08 13:58:12;;;;;;;;;;;22.00;59.00;;;;;;5131742;27;19930;-71
2022/09/08 14:00:54;;;;;;;;;;;22.00;58.80;;;;;;5122458;27;19958;-71
2022/09/08 14:03:21;;;;;;;;;;;21.90;59.10;;;;;;5127235;27;19976;-71
2022/09/08 14:05:49;;;;;;;;;;;21.90;58.80;;;;;;5134549;27;19919;-72
2022/09/08 14:08:18;;;;;;;;;;;21.90;58.90;;;;;;5127491;27;19972;-71
2022/09/08 14:10:51;;;;;;;;;;;21.90;58.80;;;;;;5132851;27;20030;-71
2022/09/08 14:13:22;;;;;;;;;;;22.00;58.80;;;;;;5125917;27;20300;-71
2022/09/08 14:15:49;;;;;;;;;;;22.10;58.00;;;;;;5125136;27;19960;-70
2022/09/08 14:18:30;;;;;;;;;;;22.00;57.60;;;;;;5132859;27;19927;-72
2022/09/08 14:20:59;;;;;;;;;;;21.90;57.90;;;;;;5131740;27;19919;-71
2022/09/08 14:23:35;;;;;;;;;;;21.80;57.70;;;;;;5128348;27;19923;-71
2022/09/08 14:26:23;;;;;;;;;;;21.70;58.50;;;;;;5135540;27;20555;-71
2022/09/08 14:28:55;;;;;;;;;;;21.70;59.00;;;;;;5110770;27;19950;-71
2022/09/08 14:31:26;;;;;;;;;;;21.60;59.30;;;;;;5131735;27;19923;-71
2022/09/08 14:33:57;;;;;;;;;;;21.60;59.40;;;;;;5132356;27;19949;-71
2022/09/08 14:36:32;;;;;;;;;;;21.60;59.60;;;;;;5141570;27;19931;-70
2022/09/08 14:39:09;;;;;;;;;;;21.60;59.40;;;;;;5126882;27;19919;-71
2022/09/08 14:41:37;;;;;;;;;;;21.60;59.60;;;;;;5130529;27;19934;-72
2022/09/08 14:44:23;;;;;;;;;;;21.50;60.10;;;;;;5133685;27;19919;-71
2022/09/08 14:46:59;;;;;;;;;;;21.60;59.70;;;;;;5125207;27;19927;-72
2022/09/08 14:49:50;;;;;;;;;;;21.50;59.60;;;;;;5129219;27;20022;-71
2022/09/08 14:52:27;;;;;;;;;;;21.50;59.80;;;;;;5126560;27;19919;-72